sensor_id;sensor_type;location;lat;lon;timestamp;P1;durP1;ratioP1;P2;durP2;ratioP2
23290;SDS011;11814;44.686;10.842;2023-04-20T00:01:43;2.95;;;2.30;;
23290;SDS011;11814;44.686;10.842;2023-04-20T00:04:09;6.53;;;2.42;;
23290;SDS011;11814;44.686;10.842;2023-04-20T00:06:35;4.40;;;2.10;;
23290;SDS011;11814;44.686;10.842;2023-04-20T00:09:01;3.55;;;2.10;;
23290;SDS011;11814;44.686;10.842;2023-04-20T00:11:28;5.03;;;2.33;;
23290;SDS011;11814;44.686;10.842;2023-04-20T00:13:54;4.13;;;1.90;;
23290;SDS011;11814;44.686;10.842;2023-04-20T00:16:20;4.18;;;2.25;;
23290;SDS011;11814;44.686;10.842;2023-04-20T00:18:46;6.20;;;2.20;;
23290;SDS011;11814;44.686;10.842;2023-04-20T00:21:12;5.65;;;2.83;;
23290;SDS011;11814;44.686;10.842;2023-04-20T00:23:39;3.85;;;2.42;;
23290;SDS011;11814;44.686;10.842;2023-04-20T00:26:05;6.97;;;3.33;;
23290;SDS011;11814;44.686;10.842;2023-04-20T00:28:31;5.32;;;3.53;;
23290;SDS011;11814;44.686;10.842;2023-04-20T00:30:57;4.03;;;3.40;;
23290;SDS011;11814;44.686;10.842;2023-04-20T00:33:23;7.85;;;4.53;;
23290;SDS011;11814;44.686;10.842;2023-04-20T00:35:48;8.50;;;4.95;;
23290;SDS011;11814;44.686;10.842;2023-04-20T00:38:14;8.38;;;5.45;;
23290;SDS011;11814;44.686;10.842;2023-04-20T00:40:41;7.03;;;5.40;;
23290;SDS011;11814;44.686;10.842;2023-04-20T00:43:11;7.40;;;5.32;;
23290;SDS011;11814;44.686;10.842;2023-04-20T00:45:38;9.55;;;5.55;;
23290;SDS011;11814;44.686;10.842;2023-04-20T00:48:04;6.50;;;5.03;;
23290;SDS011;11814;44.686;10.842;2023-04-20T00:50:30;6.68;;;5.43;;
23290;SDS011;11814;44.686;10.842;2023-04-20T00:52:56;6.63;;;5.10;;
23290;SDS011;11814;44.686;10.842;2023-04-20T00:55:22;6.57;;;5.15;;
23290;SDS011;11814;44.686;10.842;2023-04-20T00:57:49;6.30;;;4.70;;
23290;SDS011;11814;44.686;10.842;2023-04-20T01:00:16;7.45;;;4.75;;
23290;SDS011;11814;44.686;10.842;2023-04-20T01:02:41;9.18;;;5.68;;
23290;SDS011;11814;44.686;10.842;2023-04-20T01:05:07;6.55;;;4.82;;
23290;SDS011;11814;44.686;10.842;2023-04-20T01:07:33;10.50;;;5.30;;
23290;SDS011;11814;44.686;10.842;2023-04-20T01:09:59;7.72;;;4.85;;
23290;SDS011;11814;44.686;10.842;2023-04-20T01:12:24;10.60;;;5.18;;
23290;SDS011;11814;44.686;10.842;2023-04-20T01:14:50;12.60;;;5.38;;
23290;SDS011;11814;44.686;10.842;2023-04-20T01:17:16;9.98;;;5.60;;
23290;SDS011;11814;44.686;10.842;2023-04-20T01:19:42;9.20;;;5.53;;
23290;SDS011;11814;44.686;10.842;2023-04-20T01:22:15;8.65;;;5.30;;
23290;SDS011;11814;44.686;10.842;2023-04-20T01:24:42;6.20;;;5.10;;
23290;SDS011;11814;44.686;10.842;2023-04-20T01:27:08;7.30;;;4.88;;
23290;SDS011;11814;44.686;10.842;2023-04-20T01:29:34;6.03;;;4.97;;
23290;SDS011;11814;44.686;10.842;2023-04-20T01:31:59;6.65;;;4.75;;
23290;SDS011;11814;44.686;10.842;2023-04-20T01:34:25;10.07;;;5.18;;
23290;SDS011;11814;44.686;10.842;2023-04-20T01:36:51;6.78;;;4.95;;
23290;SDS011;11814;44.686;10.842;2023-04-20T01:39:17;7.90;;;5.35;;
23290;SDS011;11814;44.686;10.842;2023-04-20T01:41:43;6.70;;;5.03;;
23290;SDS011;11814;44.686;10.842;2023-04-20T01:44:09;8.05;;;5.47;;
23290;SDS011;11814;44.686;10.842;2023-04-20T01:46:36;8.05;;;5.65;;
23290;SDS011;11814;44.686;10.842;2023-04-20T01:49:03;7.35;;;5.75;;
23290;SDS011;11814;44.686;10.842;2023-04-20T01:51:29;12.73;;;6.03;;
23290;SDS011;11814;44.686;10.842;2023-04-20T01:53:57;8.10;;;5.47;;
23290;SDS011;11814;44.686;10.842;2023-04-20T01:56:23;5.90;;;5.18;;
23290;SDS011;11814;44.686;10.842;2023-04-20T01:58:49;7.63;;;5.95;;
23290;SDS011;11814;44.686;10.842;2023-04-20T02:01:15;8.75;;;6.28;;
23290;SDS011;11814;44.686;10.842;2023-04-20T02:03:41;9.70;;;6.15;;
23290;SDS011;11814;44.686;10.842;2023-04-20T02:06:07;9.40;;;6.18;;
23290;SDS011;11814;44.686;10.842;2023-04-20T02:08:33;10.48;;;6.03;;
23290;SDS011;11814;44.686;10.842;2023-04-20T02:10:59;12.13;;;6.03;;
23290;SDS011;11814;44.686;10.842;2023-04-20T02:13:25;9.95;;;6.18;;
23290;SDS011;11814;44.686;10.842;2023-04-20T02:15:51;10.52;;;5.72;;
23290;SDS011;11814;44.686;10.842;2023-04-20T02:18:17;8.65;;;6.68;;
23290;SDS011;11814;44.686;10.842;2023-04-20T02:20:43;10.35;;;6.00;;
23290;SDS011;11814;44.686;10.842;2023-04-20T02:23:09;10.20;;;7.50;;
23290;SDS011;11814;44.686;10.842;2023-04-20T02:25:36;8.82;;;7.32;;
23290;SDS011;11814;44.686;10.842;2023-04-20T02:28:01;10.75;;;7.57;;
23290;SDS011;11814;44.686;10.842;2023-04-20T02:30:27;9.50;;;7.65;;
23290;SDS011;11814;44.686;10.842;2023-04-20T02:32:53;10.43;;;7.53;;
23290;SDS011;11814;44.686;10.842;2023-04-20T02:35:19;11.15;;;8.25;;
23290;SDS011;11814;44.686;10.842;2023-04-20T02:37:45;9.93;;;7.05;;
23290;SDS011;11814;44.686;10.842;2023-04-20T02:40:12;12.68;;;7.40;;
23290;SDS011;11814;44.686;10.842;2023-04-20T02:42:38;10.27;;;7.75;;
23290;SDS011;11814;44.686;10.842;2023-04-20T02:45:03;8.85;;;6.85;;
23290;SDS011;11814;44.686;10.842;2023-04-20T02:47:30;10.57;;;6.70;;
23290;SDS011;11814;44.686;10.842;2023-04-20T02:49:56;9.40;;;7.00;;
23290;SDS011;11814;44.686;10.842;2023-04-20T02:52:21;9.35;;;6.85;;
23290;SDS011;11814;44.686;10.842;2023-04-20T02:54:47;9.05;;;6.72;;
23290;SDS011;11814;44.686;10.842;2023-04-20T02:57:13;10.85;;;7.32;;
23290;SDS011;11814;44.686;10.842;2023-04-20T02:59:38;8.07;;;5.68;;
23290;SDS011;11814;44.686;10.842;2023-04-20T03:02:04;8.75;;;5.57;;
23290;SDS011;11814;44.686;10.842;2023-04-20T03:04:30;8.45;;;6.07;;
23290;SDS011;11814;44.686;10.842;2023-04-20T03:06:56;7.35;;;5.28;;
23290;SDS011;11814;44.686;10.842;2023-04-20T03:09:22;7.00;;;5.55;;
23290;SDS011;11814;44.686;10.842;2023-04-20T03:11:49;7.50;;;5.70;;
23290;SDS011;11814;44.686;10.842;2023-04-20T03:14:15;6.95;;;4.82;;
23290;SDS011;11814;44.686;10.842;2023-04-20T03:16:41;7.75;;;6.07;;
23290;SDS011;11814;44.686;10.842;2023-04-20T03:19:06;8.50;;;5.50;;
23290;SDS011;11814;44.686;10.842;2023-04-20T03:21:32;6.88;;;6.03;;
23290;SDS011;11814;44.686;10.842;2023-04-20T03:23:59;9.45;;;7.00;;
23290;SDS011;11814;44.686;10.842;2023-04-20T03:26:25;8.45;;;5.72;;
23290;SDS011;11814;44.686;10.842;2023-04-20T03:28:51;6.18;;;5.30;;
23290;SDS011;11814;44.686;10.842;2023-04-20T03:31:17;7.53;;;6.05;;
23290;SDS011;11814;44.686;10.842;2023-04-20T03:33:42;9.45;;;6.20;;
23290;SDS011;11814;44.686;10.842;2023-04-20T03:36:08;7.50;;;5.45;;
23290;SDS011;11814;44.686;10.842;2023-04-20T03:38:37;8.32;;;6.18;;
23290;SDS011;11814;44.686;10.842;2023-04-20T03:41:03;10.18;;;6.18;;
23290;SDS011;11814;44.686;10.842;2023-04-20T03:43:32;11.63;;;5.63;;
23290;SDS011;11814;44.686;10.842;2023-04-20T03:45:58;7.50;;;5.90;;
23290;SDS011;11814;44.686;10.842;2023-04-20T03:48:23;10.38;;;5.82;;
23290;SDS011;11814;44.686;10.842;2023-04-20T03:50:49;9.18;;;5.72;;
23290;SDS011;11814;44.686;10.842;2023-04-20T03:53:15;15.98;;;6.07;;
23290;SDS011;11814;44.686;10.842;2023-04-20T03:55:41;9.43;;;6.40;;
23290;SDS011;11814;44.686;10.842;2023-04-20T03:58:07;8.43;;;5.72;;
23290;SDS011;11814;44.686;10.842;2023-04-20T04:00:33;8.40;;;5.90;;
23290;SDS011;11814;44.686;10.842;2023-04-20T04:02:59;8.20;;;6.68;;
23290;SDS011;11814;44.686;10.842;2023-04-20T04:05:25;9.27;;;6.63;;
23290;SDS011;11814;44.686;10.842;2023-04-20T04:07:51;9.85;;;6.63;;
23290;SDS011;11814;44.686;10.842;2023-04-20T04:10:31;8.15;;;5.88;;
23290;SDS011;11814;44.686;10.842;2023-04-20T04:12:57;10.18;;;6.00;;
23290;SDS011;11814;44.686;10.842;2023-04-20T04:15:23;11.68;;;7.50;;
23290;SDS011;11814;44.686;10.842;2023-04-20T04:17:49;11.10;;;6.70;;
23290;SDS011;11814;44.686;10.842;2023-04-20T04:20:15;8.30;;;5.88;;
23290;SDS011;11814;44.686;10.842;2023-04-20T04:22:41;9.00;;;6.13;;
23290;SDS011;11814;44.686;10.842;2023-04-20T04:25:06;8.40;;;5.93;;
23290;SDS011;11814;44.686;10.842;2023-04-20T04:27:32;9.05;;;5.72;;
23290;SDS011;11814;44.686;10.842;2023-04-20T04:29:59;10.30;;;6.03;;
23290;SDS011;11814;44.686;10.842;2023-04-20T04:32:26;11.50;;;6.93;;
23290;SDS011;11814;44.686;10.842;2023-04-20T04:34:52;21.17;;;7.22;;
23290;SDS011;11814;44.686;10.842;2023-04-20T04:37:18;9.75;;;7.18;;
23290;SDS011;11814;44.686;10.842;2023-04-20T04:39:44;9.70;;;7.22;;
23290;SDS011;11814;44.686;10.842;2023-04-20T04:42:10;11.35;;;7.03;;
23290;SDS011;11814;44.686;10.842;2023-04-20T04:44:36;11.80;;;6.40;;
23290;SDS011;11814;44.686;10.842;2023-04-20T04:47:02;8.85;;;7.00;;
23290;SDS011;11814;44.686;10.842;2023-04-20T04:49:29;14.05;;;7.50;;
23290;SDS011;11814;44.686;10.842;2023-04-20T04:51:59;9.73;;;6.82;;
23290;SDS011;11814;44.686;10.842;2023-04-20T04:54:25;8.05;;;6.38;;
23290;SDS011;11814;44.686;10.842;2023-04-20T04:56:51;10.85;;;6.95;;
23290;SDS011;11814;44.686;10.842;2023-04-20T04:59:17;15.40;;;7.63;;
23290;SDS011;11814;44.686;10.842;2023-04-20T05:01:42;8.55;;;6.18;;
23290;SDS011;11814;44.686;10.842;2023-04-20T05:04:08;9.60;;;6.78;;
23290;SDS011;11814;44.686;10.842;2023-04-20T05:06:34;12.98;;;6.35;;
23290;SDS011;11814;44.686;10.842;2023-04-20T05:08:59;12.15;;;6.97;;
23290;SDS011;11814;44.686;10.842;2023-04-20T05:11:25;9.35;;;6.82;;
23290;SDS011;11814;44.686;10.842;2023-04-20T05:13:51;10.55;;;6.80;;
23290;SDS011;11814;44.686;10.842;2023-04-20T05:16:17;10.18;;;6.82;;
23290;SDS011;11814;44.686;10.842;2023-04-20T05:18:42;10.57;;;6.45;;
23290;SDS011;11814;44.686;10.842;2023-04-20T05:21:08;12.52;;;6.50;;
23290;SDS011;11814;44.686;10.842;2023-04-20T05:23:34;10.18;;;7.20;;
23290;SDS011;11814;44.686;10.842;2023-04-20T05:26:00;9.23;;;6.75;;
23290;SDS011;11814;44.686;10.842;2023-04-20T05:28:25;11.70;;;7.28;;
23290;SDS011;11814;44.686;10.842;2023-04-20T05:30:51;7.82;;;6.25;;
23290;SDS011;11814;44.686;10.842;2023-04-20T05:33:19;8.95;;;6.78;;
23290;SDS011;11814;44.686;10.842;2023-04-20T05:35:45;8.45;;;6.50;;
23290;SDS011;11814;44.686;10.842;2023-04-20T05:38:11;9.10;;;6.57;;
23290;SDS011;11814;44.686;10.842;2023-04-20T05:40:36;12.90;;;7.18;;
23290;SDS011;11814;44.686;10.842;2023-04-20T05:43:02;8.10;;;6.68;;
23290;SDS011;11814;44.686;10.842;2023-04-20T05:45:28;7.72;;;6.40;;
23290;SDS011;11814;44.686;10.842;2023-04-20T05:47:54;9.13;;;7.32;;
23290;SDS011;11814;44.686;10.842;2023-04-20T05:50:21;10.07;;;7.43;;
23290;SDS011;11814;44.686;10.842;2023-04-20T05:52:48;12.75;;;6.97;;
23290;SDS011;11814;44.686;10.842;2023-04-20T05:55:15;12.02;;;7.10;;
23290;SDS011;11814;44.686;10.842;2023-04-20T05:57:40;11.10;;;7.32;;
23290;SDS011;11814;44.686;10.842;2023-04-20T06:00:10;14.88;;;7.82;;
23290;SDS011;11814;44.686;10.842;2023-04-20T06:02:37;9.85;;;7.40;;
23290;SDS011;11814;44.686;10.842;2023-04-20T06:05:03;9.48;;;7.65;;
23290;SDS011;11814;44.686;10.842;2023-04-20T06:07:29;13.38;;;8.38;;
23290;SDS011;11814;44.686;10.842;2023-04-20T06:09:55;16.20;;;8.27;;
23290;SDS011;11814;44.686;10.842;2023-04-20T06:12:21;12.88;;;8.82;;
23290;SDS011;11814;44.686;10.842;2023-04-20T06:14:47;16.27;;;8.57;;
23290;SDS011;11814;44.686;10.842;2023-04-20T06:17:13;18.83;;;9.27;;
23290;SDS011;11814;44.686;10.842;2023-04-20T06:19:39;13.38;;;8.68;;
23290;SDS011;11814;44.686;10.842;2023-04-20T06:22:07;12.55;;;8.75;;
23290;SDS011;11814;44.686;10.842;2023-04-20T06:24:34;11.23;;;8.38;;
23290;SDS011;11814;44.686;10.842;2023-04-20T06:27:01;16.45;;;8.93;;
23290;SDS011;11814;44.686;10.842;2023-04-20T06:29:27;15.55;;;8.88;;
23290;SDS011;11814;44.686;10.842;2023-04-20T06:31:53;13.07;;;8.95;;
23290;SDS011;11814;44.686;10.842;2023-04-20T06:34:19;14.32;;;9.45;;
23290;SDS011;11814;44.686;10.842;2023-04-20T06:36:45;15.57;;;10.38;;
23290;SDS011;11814;44.686;10.842;2023-04-20T06:39:10;19.35;;;12.05;;
23290;SDS011;11814;44.686;10.842;2023-04-20T06:41:36;15.40;;;11.35;;
23290;SDS011;11814;44.686;10.842;2023-04-20T06:44:03;15.50;;;11.05;;
23290;SDS011;11814;44.686;10.842;2023-04-20T06:46:30;20.45;;;11.20;;
23290;SDS011;11814;44.686;10.842;2023-04-20T06:48:56;14.63;;;10.10;;
23290;SDS011;11814;44.686;10.842;2023-04-20T06:51:23;13.90;;;9.90;;
23290;SDS011;11814;44.686;10.842;2023-04-20T06:53:49;15.95;;;10.57;;
23290;SDS011;11814;44.686;10.842;2023-04-20T06:56:15;10.45;;;8.07;;
23290;SDS011;11814;44.686;10.842;2023-04-20T06:58:40;10.65;;;8.52;;
23290;SDS011;11814;44.686;10.842;2023-04-20T07:01:06;12.55;;;8.75;;
23290;SDS011;11814;44.686;10.842;2023-04-20T07:03:32;11.65;;;8.38;;
23290;SDS011;11814;44.686;10.842;2023-04-20T07:05:57;12.77;;;9.35;;
23290;SDS011;11814;44.686;10.842;2023-04-20T07:08:23;14.73;;;10.10;;
23290;SDS011;11814;44.686;10.842;2023-04-20T07:10:49;16.73;;;10.35;;
23290;SDS011;11814;44.686;10.842;2023-04-20T07:13:15;17.38;;;10.80;;
23290;SDS011;11814;44.686;10.842;2023-04-20T07:15:40;16.90;;;11.50;;
23290;SDS011;11814;44.686;10.842;2023-04-20T07:18:09;17.63;;;12.20;;
23290;SDS011;11814;44.686;10.842;2023-04-20T07:20:35;16.83;;;11.88;;
23290;SDS011;11814;44.686;10.842;2023-04-20T07:23:00;18.58;;;12.43;;
23290;SDS011;11814;44.686;10.842;2023-04-20T07:25:26;15.10;;;11.77;;
23290;SDS011;11814;44.686;10.842;2023-04-20T07:27:52;16.38;;;12.52;;
23290;SDS011;11814;44.686;10.842;2023-04-20T07:30:18;14.85;;;11.68;;
23290;SDS011;11814;44.686;10.842;2023-04-20T07:32:43;18.58;;;13.77;;
23290;SDS011;11814;44.686;10.842;2023-04-20T07:35:09;18.40;;;13.57;;
23290;SDS011;11814;44.686;10.842;2023-04-20T07:37:35;20.13;;;13.50;;
23290;SDS011;11814;44.686;10.842;2023-04-20T07:40:01;17.30;;;14.00;;
23290;SDS011;11814;44.686;10.842;2023-04-20T07:42:30;19.85;;;13.77;;
23290;SDS011;11814;44.686;10.842;2023-04-20T07:45:01;21.05;;;15.60;;
23290;SDS011;11814;44.686;10.842;2023-04-20T07:47:27;22.17;;;15.60;;
23290;SDS011;11814;44.686;10.842;2023-04-20T07:49:53;20.63;;;14.80;;
23290;SDS011;11814;44.686;10.842;2023-04-20T07:52:18;19.80;;;14.55;;
23290;SDS011;11814;44.686;10.842;2023-04-20T07:54:44;18.52;;;14.60;;
23290;SDS011;11814;44.686;10.842;2023-04-20T07:57:10;24.60;;;16.00;;
23290;SDS011;11814;44.686;10.842;2023-04-20T07:59:36;22.85;;;16.35;;
23290;SDS011;11814;44.686;10.842;2023-04-20T08:02:02;21.60;;;16.08;;
23290;SDS011;11814;44.686;10.842;2023-04-20T08:04:28;22.52;;;16.88;;
23290;SDS011;11814;44.686;10.842;2023-04-20T08:06:54;29.38;;;17.88;;
23290;SDS011;11814;44.686;10.842;2023-04-20T08:09:20;21.02;;;15.77;;
23290;SDS011;11814;44.686;10.842;2023-04-20T08:11:45;22.63;;;16.48;;
23290;SDS011;11814;44.686;10.842;2023-04-20T08:14:12;20.55;;;15.27;;
23290;SDS011;11814;44.686;10.842;2023-04-20T08:16:39;22.73;;;15.68;;
23290;SDS011;11814;44.686;10.842;2023-04-20T08:19:05;20.40;;;15.07;;
23290;SDS011;11814;44.686;10.842;2023-04-20T08:21:40;20.67;;;15.43;;
23290;SDS011;11814;44.686;10.842;2023-04-20T08:24:06;21.48;;;15.40;;
23290;SDS011;11814;44.686;10.842;2023-04-20T08:26:33;18.55;;;14.20;;
23290;SDS011;11814;44.686;10.842;2023-04-20T08:28:59;19.10;;;13.23;;
23290;SDS011;11814;44.686;10.842;2023-04-20T08:31:26;15.85;;;12.30;;
23290;SDS011;11814;44.686;10.842;2023-04-20T08:33:52;15.57;;;11.57;;
23290;SDS011;11814;44.686;10.842;2023-04-20T08:36:18;14.60;;;11.23;;
23290;SDS011;11814;44.686;10.842;2023-04-20T08:38:44;14.23;;;12.10;;
23290;SDS011;11814;44.686;10.842;2023-04-20T08:41:10;13.63;;;11.50;;
23290;SDS011;11814;44.686;10.842;2023-04-20T08:43:37;14.80;;;11.77;;
23290;SDS011;11814;44.686;10.842;2023-04-20T08:46:03;15.85;;;12.38;;
23290;SDS011;11814;44.686;10.842;2023-04-20T08:48:33;16.70;;;12.25;;
23290;SDS011;11814;44.686;10.842;2023-04-20T08:51:00;17.25;;;12.23;;
23290;SDS011;11814;44.686;10.842;2023-04-20T08:53:28;18.15;;;12.98;;
23290;SDS011;11814;44.686;10.842;2023-04-20T08:55:54;16.55;;;12.15;;
23290;SDS011;11814;44.686;10.842;2023-04-20T08:58:23;15.65;;;12.57;;
23290;SDS011;11814;44.686;10.842;2023-04-20T09:00:50;15.48;;;12.52;;
23290;SDS011;11814;44.686;10.842;2023-04-20T09:03:16;17.52;;;12.93;;
23290;SDS011;11814;44.686;10.842;2023-04-20T09:05:42;15.85;;;12.20;;
23290;SDS011;11814;44.686;10.842;2023-04-20T09:08:09;16.60;;;12.15;;
23290;SDS011;11814;44.686;10.842;2023-04-20T09:10:38;15.60;;;11.05;;
23290;SDS011;11814;44.686;10.842;2023-04-20T09:13:30;18.17;;;12.38;;
23290;SDS011;11814;44.686;10.842;2023-04-20T09:15:54;20.88;;;12.27;;
23290;SDS011;11814;44.686;10.842;2023-04-20T09:18:20;20.40;;;11.48;;
23290;SDS011;11814;44.686;10.842;2023-04-20T09:20:48;12.77;;;11.05;;
23290;SDS011;11814;44.686;10.842;2023-04-20T09:23:19;14.63;;;11.57;;
23290;SDS011;11814;44.686;10.842;2023-04-20T09:25:48;16.02;;;11.68;;
23290;SDS011;11814;44.686;10.842;2023-04-20T09:28:16;15.10;;;10.85;;
23290;SDS011;11814;44.686;10.842;2023-04-20T09:30:46;13.75;;;10.75;;
23290;SDS011;11814;44.686;10.842;2023-04-20T09:33:13;15.48;;;10.88;;
23290;SDS011;11814;44.686;10.842;2023-04-20T09:35:40;15.10;;;11.18;;
23290;SDS011;11814;44.686;10.842;2023-04-20T09:38:07;12.90;;;10.82;;
23290;SDS011;11814;44.686;10.842;2023-04-20T09:40:34;12.10;;;10.50;;
23290;SDS011;11814;44.686;10.842;2023-04-20T09:43:06;12.63;;;10.30;;
23290;SDS011;11814;44.686;10.842;2023-04-20T09:45:36;11.40;;;9.98;;
23290;SDS011;11814;44.686;10.842;2023-04-20T09:48:06;11.52;;;9.68;;
23290;SDS011;11814;44.686;10.842;2023-04-20T09:50:34;11.98;;;9.90;;
23290;SDS011;11814;44.686;10.842;2023-04-20T09:53:02;12.43;;;10.00;;
23290;SDS011;11814;44.686;10.842;2023-04-20T09:55:31;12.52;;;9.68;;
23290;SDS011;11814;44.686;10.842;2023-04-20T09:57:57;12.07;;;9.52;;
23290;SDS011;11814;44.686;10.842;2023-04-20T10:00:26;14.52;;;9.98;;
23290;SDS011;11814;44.686;10.842;2023-04-20T10:02:52;11.60;;;9.40;;
23290;SDS011;11814;44.686;10.842;2023-04-20T10:05:18;14.25;;;8.73;;
23290;SDS011;11814;44.686;10.842;2023-04-20T10:07:46;14.02;;;9.35;;
23290;SDS011;11814;44.686;10.842;2023-04-20T10:10:22;13.02;;;9.50;;
23290;SDS011;11814;44.686;10.842;2023-04-20T10:12:58;12.23;;;9.43;;
23290;SDS011;11814;44.686;10.842;2023-04-20T10:15:37;13.57;;;8.38;;
23290;SDS011;11814;44.686;10.842;2023-04-20T10:20:43;13.85;;;9.45;;
23290;SDS011;11814;44.686;10.842;2023-04-20T10:23:09;12.25;;;8.95;;
23290;SDS011;11814;44.686;10.842;2023-04-20T10:25:35;11.15;;;8.63;;
23290;SDS011;11814;44.686;10.842;2023-04-20T10:28:03;11.85;;;9.15;;
23290;SDS011;11814;44.686;10.842;2023-04-20T10:30:32;11.32;;;9.10;;
23290;SDS011;11814;44.686;10.842;2023-04-20T10:38:08;12.50;;;8.65;;
23290;SDS011;11814;44.686;10.842;2023-04-20T10:40:35;10.07;;;8.40;;
23290;SDS011;11814;44.686;10.842;2023-04-20T10:43:01;11.07;;;8.05;;
23290;SDS011;11814;44.686;10.842;2023-04-20T10:45:34;10.23;;;7.95;;
23290;SDS011;11814;44.686;10.842;2023-04-20T10:48:07;10.57;;;8.18;;
23290;SDS011;11814;44.686;10.842;2023-04-20T10:50:33;10.35;;;8.32;;
23290;SDS011;11814;44.686;10.842;2023-04-20T10:52:59;10.30;;;7.63;;
23290;SDS011;11814;44.686;10.842;2023-04-20T10:55:25;11.35;;;7.97;;
23290;SDS011;11814;44.686;10.842;2023-04-20T10:57:51;9.38;;;7.53;;
23290;SDS011;11814;44.686;10.842;2023-04-20T11:00:21;12.00;;;8.48;;
23290;SDS011;11814;44.686;10.842;2023-04-20T11:02:49;12.73;;;7.75;;
23290;SDS011;11814;44.686;10.842;2023-04-20T11:05:23;10.50;;;8.00;;
23290;SDS011;11814;44.686;10.842;2023-04-20T11:07:57;9.63;;;8.00;;
23290;SDS011;11814;44.686;10.842;2023-04-20T11:10:40;11.18;;;8.95;;
23290;SDS011;11814;44.686;10.842;2023-04-20T11:13:06;14.02;;;8.52;;
23290;SDS011;11814;44.686;10.842;2023-04-20T11:15:49;13.00;;;9.57;;
23290;SDS011;11814;44.686;10.842;2023-04-20T11:18:15;9.65;;;8.05;;
23290;SDS011;11814;44.686;10.842;2023-04-20T11:20:51;9.90;;;7.90;;
23290;SDS011;11814;44.686;10.842;2023-04-20T11:23:19;12.93;;;9.00;;
23290;SDS011;11814;44.686;10.842;2023-04-20T11:25:53;11.38;;;8.77;;
23290;SDS011;11814;44.686;10.842;2023-04-20T11:28:20;14.32;;;9.32;;
23290;SDS011;11814;44.686;10.842;2023-04-20T11:30:46;11.38;;;9.07;;
23290;SDS011;11814;44.686;10.842;2023-04-20T11:33:14;13.10;;;9.75;;
23290;SDS011;11814;44.686;10.842;2023-04-20T11:35:41;11.57;;;9.23;;
23290;SDS011;11814;44.686;10.842;2023-04-20T11:38:07;11.88;;;8.75;;
23290;SDS011;11814;44.686;10.842;2023-04-20T11:40:34;10.27;;;8.85;;
23290;SDS011;11814;44.686;10.842;2023-04-20T11:43:00;11.77;;;8.57;;
23290;SDS011;11814;44.686;10.842;2023-04-20T11:45:26;15.90;;;9.15;;
23290;SDS011;11814;44.686;10.842;2023-04-20T11:47:57;9.75;;;8.75;;
23290;SDS011;11814;44.686;10.842;2023-04-20T11:50:24;13.02;;;9.65;;
23290;SDS011;11814;44.686;10.842;2023-04-20T11:52:50;14.65;;;10.25;;
23290;SDS011;11814;44.686;10.842;2023-04-20T11:55:15;11.82;;;10.13;;
23290;SDS011;11814;44.686;10.842;2023-04-20T11:57:41;10.65;;;9.00;;
23290;SDS011;11814;44.686;10.842;2023-04-20T12:00:07;10.55;;;8.93;;
23290;SDS011;11814;44.686;10.842;2023-04-20T12:02:33;15.23;;;9.80;;
23290;SDS011;11814;44.686;10.842;2023-04-20T12:04:59;14.88;;;11.02;;
23290;SDS011;11814;44.686;10.842;2023-04-20T12:07:26;13.45;;;10.43;;
23290;SDS011;11814;44.686;10.842;2023-04-20T12:09:52;13.98;;;10.55;;
23290;SDS011;11814;44.686;10.842;2023-04-20T12:12:18;11.45;;;10.10;;
23290;SDS011;11814;44.686;10.842;2023-04-20T12:14:43;11.93;;;9.63;;
23290;SDS011;11814;44.686;10.842;2023-04-20T12:17:09;14.40;;;10.27;;
23290;SDS011;11814;44.686;10.842;2023-04-20T12:19:35;12.65;;;10.73;;
23290;SDS011;11814;44.686;10.842;2023-04-20T12:22:01;12.25;;;9.52;;
23290;SDS011;11814;44.686;10.842;2023-04-20T12:24:26;13.85;;;9.95;;
23290;SDS011;11814;44.686;10.842;2023-04-20T12:26:52;12.73;;;9.98;;
23290;SDS011;11814;44.686;10.842;2023-04-20T12:29:18;15.00;;;10.07;;
23290;SDS011;11814;44.686;10.842;2023-04-20T12:31:44;12.90;;;10.13;;
23290;SDS011;11814;44.686;10.842;2023-04-20T12:34:10;12.52;;;11.23;;
23290;SDS011;11814;44.686;10.842;2023-04-20T12:36:36;12.15;;;10.30;;
23290;SDS011;11814;44.686;10.842;2023-04-20T12:39:02;14.25;;;10.48;;
23290;SDS011;11814;44.686;10.842;2023-04-20T12:41:28;13.35;;;10.85;;
23290;SDS011;11814;44.686;10.842;2023-04-20T12:43:54;10.80;;;9.23;;
23290;SDS011;11814;44.686;10.842;2023-04-20T12:46:20;15.80;;;10.63;;
23290;SDS011;11814;44.686;10.842;2023-04-20T12:48:46;13.25;;;10.63;;
23290;SDS011;11814;44.686;10.842;2023-04-20T12:51:12;11.77;;;10.57;;
23290;SDS011;11814;44.686;10.842;2023-04-20T12:53:39;13.25;;;9.68;;
23290;SDS011;11814;44.686;10.842;2023-04-20T12:56:06;11.18;;;9.88;;
23290;SDS011;11814;44.686;10.842;2023-04-20T12:58:32;15.52;;;10.68;;
23290;SDS011;11814;44.686;10.842;2023-04-20T13:00:57;12.75;;;11.00;;
23290;SDS011;11814;44.686;10.842;2023-04-20T13:03:23;13.38;;;11.20;;
23290;SDS011;11814;44.686;10.842;2023-04-20T13:05:49;15.45;;;10.85;;
23290;SDS011;11814;44.686;10.842;2023-04-20T13:08:15;14.77;;;11.77;;
23290;SDS011;11814;44.686;10.842;2023-04-20T13:10:41;12.43;;;10.70;;
23290;SDS011;11814;44.686;10.842;2023-04-20T13:13:07;13.75;;;10.27;;
23290;SDS011;11814;44.686;10.842;2023-04-20T13:15:34;11.82;;;10.02;;
23290;SDS011;11814;44.686;10.842;2023-04-20T13:18:01;16.20;;;10.60;;
23290;SDS011;11814;44.686;10.842;2023-04-20T13:20:27;17.30;;;10.90;;
23290;SDS011;11814;44.686;10.842;2023-04-20T13:23:03;17.08;;;11.63;;
23290;SDS011;11814;44.686;10.842;2023-04-20T13:25:30;14.20;;;11.15;;
23290;SDS011;11814;44.686;10.842;2023-04-20T13:27:57;17.00;;;10.98;;
23290;SDS011;11814;44.686;10.842;2023-04-20T13:30:24;16.33;;;11.05;;
23290;SDS011;11814;44.686;10.842;2023-04-20T13:32:50;15.07;;;10.95;;
23290;SDS011;11814;44.686;10.842;2023-04-20T13:35:16;14.55;;;11.43;;
23290;SDS011;11814;44.686;10.842;2023-04-20T13:37:43;14.82;;;11.95;;
23290;SDS011;11814;44.686;10.842;2023-04-20T13:40:09;15.07;;;12.02;;
23290;SDS011;11814;44.686;10.842;2023-04-20T13:42:35;13.73;;;12.05;;
23290;SDS011;11814;44.686;10.842;2023-04-20T13:45:01;15.95;;;12.40;;
23290;SDS011;11814;44.686;10.842;2023-04-20T13:47:28;15.93;;;12.65;;
23290;SDS011;11814;44.686;10.842;2023-04-20T13:49:54;17.15;;;12.48;;
23290;SDS011;11814;44.686;10.842;2023-04-20T13:52:20;17.65;;;12.52;;
23290;SDS011;11814;44.686;10.842;2023-04-20T13:54:46;17.92;;;13.20;;
23290;SDS011;11814;44.686;10.842;2023-04-20T13:57:12;15.52;;;12.07;;
23290;SDS011;11814;44.686;10.842;2023-04-20T13:59:37;20.85;;;12.55;;
23290;SDS011;11814;44.686;10.842;2023-04-20T14:02:03;13.85;;;11.65;;
23290;SDS011;11814;44.686;10.842;2023-04-20T14:04:29;15.50;;;12.30;;
23290;SDS011;11814;44.686;10.842;2023-04-20T14:06:55;14.60;;;11.23;;
23290;SDS011;11814;44.686;10.842;2023-04-20T14:09:21;19.60;;;12.18;;
23290;SDS011;11814;44.686;10.842;2023-04-20T14:11:46;15.63;;;11.30;;
23290;SDS011;11814;44.686;10.842;2023-04-20T14:14:12;15.90;;;11.80;;
23290;SDS011;11814;44.686;10.842;2023-04-20T14:16:42;17.02;;;11.23;;
23290;SDS011;11814;44.686;10.842;2023-04-20T14:19:08;14.73;;;11.45;;
23290;SDS011;11814;44.686;10.842;2023-04-20T14:21:34;14.88;;;11.18;;
23290;SDS011;11814;44.686;10.842;2023-04-20T14:24:00;20.15;;;11.60;;
23290;SDS011;11814;44.686;10.842;2023-04-20T14:26:25;16.85;;;12.30;;